Dart — OUOV2 — position and weather

sailwx.info

Track history (hours):
 
Tides and Currents Weather Stations Pressure Air Temp Water Temp Dewpoint Dewpoint Depression Visibility Wind Speed Wind Dir Waves Ship Positions

Dart

Last reported at 2016-May-01 10:22 UTC. Time now 2016-May-01 11:48 UTC.
Position N 68°49' E 016°53'.

Length 66 m; draft 3.6 m.

Type: Tanker. MMSI: 219416000.

Date/timePositionNaut miles runAvg speedWind from/ knotsBaromVisibWave heightAir tempDewpointWater temp
2016-May-01 10:22N 68°49' E 016°53'83 9.3
2016-May-01 01:24N 67°44' E 014°31'910.2
2016-May-01 00:33N 67°35' E 014°33'1010.1
2016-Apr-30 23:33N 67°25' E 014°28'10 9.9
2016-Apr-30 22:33N 67°17' E 014°14'10 9.9
2016-Apr-30 21:33N 67°08' E 014°02'1010.1
2016-Apr-30 20:33N 67°00' E 013°45'9 8.6
2016-Apr-30 19:33N 66°55' E 013°29'10 9.7
2016-Apr-30 18:33N 66°47' E 013°15'21 9.8
2016-Apr-30 16:24N 66°27' E 012°60'74 3.4
2016-Apr-29 18:31N 65°17' E 011°58'9 9.8
2016-Apr-29 17:34N 65°08' E 011°50'9 9.3
2016-Apr-29 16:34N 65°00' E 011°38'9 9.0
2016-Apr-29 15:33N 64°55' E 011°22'10 9.7
2016-Apr-29 14:33N 64°48' E 011°06'9 8.2
2016-Apr-29 13:31N 64°42' E 010°51'45 8.4
2016-Apr-29 08:10N 64°03' E 010°01'5 8.8
2016-Apr-29 07:32N 63°58' E 009°53'8 8.6
2016-Apr-29 06:34N 63°52' E 009°41'9 9.0
2016-Apr-29 05:33N 63°44' E 009°32'9 9.1
2016-Apr-29 04:32N 63°35' E 009°26'9 8.8
2016-Apr-29 03:34N 63°31' E 009°09'44 4.9
2016-Apr-28 18:33N 63°06' E 007°47'208 5.5
2016-Apr-27 04:32N 59°59' E 004°36'269 7.9
2016-Apr-25 18:32N 57°09' W 002°02'1 0.6
2016-Apr-25 16:17N 57°08' W 002°05'0 0.0
2016-Apr-25 15:29N 57°08' W 002°05'0 0.0
2016-Apr-25 14:29N 57°08' W 002°05'0 0.0
2016-Apr-25 13:32N 57°08' W 002°05'0 0.0
2016-Apr-25 11:32N 57°08' W 002°05'0 0.0
2016-Apr-25 10:08N 57°08' W 002°05'0 0.0
2016-Apr-25 09:32N 57°08' W 002°05'0 0.0
2016-Apr-25 08:29N 57°08' W 002°05'0 0.0
2016-Apr-25 07:17N 57°09' W 002°05'0 0.0
2016-Apr-25 06:32N 57°08' W 002°05'0 0.0
2016-Apr-25 05:31N 57°08' W 002°05'0 0.0
2016-Apr-25 00:28N 57°09' W 002°05'0 0.0
2016-Apr-24 23:31N 57°09' W 002°05'0 0.0
2016-Apr-24 19:33N 57°08' W 002°05'290 6.9
2016-Apr-23 01:30N 59°53' E 005°32'8 8.8
2016-Apr-23 00:33N 59°44' E 005°30'9 8.7
2016-Apr-22 23:32N 59°38' E 005°19'10 8.2
2016-Apr-22 22:22N 59°29' E 005°13'  
Track history (hours):
 
Tides and Currents Weather Stations Pressure Air Temp Water Temp Dewpoint Dewpoint Depression Visibility Wind Speed Wind Dir Waves Ship Positions

Dart

Last reported at 2016-May-01 10:22 UTC. Time now 2016-May-01 11:48 UTC.
Position N 68°49' E 016°53'.

Length 66 m; draft 3.6 m.

Type: Tanker. MMSI: 219416000.

Date/timePositionNaut miles runAvg speedWind from/ knotsBaromVisibWave heightAir tempDewpointWater temp
2016-May-01 10:22N 68°49' E 016°53'83 9.3
2016-May-01 01:24N 67°44' E 014°31'910.2
2016-May-01 00:33N 67°35' E 014°33'1010.1
2016-Apr-30 23:33N 67°25' E 014°28'10 9.9
2016-Apr-30 22:33N 67°17' E 014°14'10 9.9
2016-Apr-30 21:33N 67°08' E 014°02'1010.1
2016-Apr-30 20:33N 67°00' E 013°45'9 8.6
2016-Apr-30 19:33N 66°55' E 013°29'10 9.7
2016-Apr-30 18:33N 66°47' E 013°15'21 9.8
2016-Apr-30 16:24N 66°27' E 012°60'74 3.4
2016-Apr-29 18:31N 65°17' E 011°58'9 9.8
2016-Apr-29 17:34N 65°08' E 011°50'9 9.3
2016-Apr-29 16:34N 65°00' E 011°38'9 9.0
2016-Apr-29 15:33N 64°55' E 011°22'10 9.7
2016-Apr-29 14:33N 64°48' E 011°06'9 8.2
2016-Apr-29 13:31N 64°42' E 010°51'45 8.4
2016-Apr-29 08:10N 64°03' E 010°01'5 8.8
2016-Apr-29 07:32N 63°58' E 009°53'8 8.6
2016-Apr-29 06:34N 63°52' E 009°41'9 9.0
2016-Apr-29 05:33N 63°44' E 009°32'9 9.1
2016-Apr-29 04:32N 63°35' E 009°26'9 8.8
2016-Apr-29 03:34N 63°31' E 009°09'44 4.9
2016-Apr-28 18:33N 63°06' E 007°47'208 5.5
2016-Apr-27 04:32N 59°59' E 004°36'269 7.9
2016-Apr-25 18:32N 57°09' W 002°02'1 0.6
2016-Apr-25 16:17N 57°08' W 002°05'0 0.0
2016-Apr-25 15:29N 57°08' W 002°05'0 0.0
2016-Apr-25 14:29N 57°08' W 002°05'0 0.0
2016-Apr-25 13:32N 57°08' W 002°05'0 0.0
2016-Apr-25 11:32N 57°08' W 002°05'0 0.0
2016-Apr-25 10:08N 57°08' W 002°05'0 0.0
2016-Apr-25 09:32N 57°08' W 002°05'0 0.0
2016-Apr-25 08:29N 57°08' W 002°05'0 0.0
2016-Apr-25 07:17N 57°09' W 002°05'0 0.0
2016-Apr-25 06:32N 57°08' W 002°05'0 0.0
2016-Apr-25 05:31N 57°08' W 002°05'0 0.0
2016-Apr-25 00:28N 57°09' W 002°05'0 0.0
2016-Apr-24 23:31N 57°09' W 002°05'0 0.0
2016-Apr-24 19:33N 57°08' W 002°05'290 6.9
2016-Apr-23 01:30N 59°53' E 005°32'8 8.8
2016-Apr-23 00:33N 59°44' E 005°30'9 8.7
2016-Apr-22 23:32N 59°38' E 005°19'10 8.2
2016-Apr-22 22:22N 59°29' E 005°13'  

Dump ship's entire track history